map of TRO home
TRO - Airport
Location
City:  Taree, New South Wales, Australia
ICAO:YTRE
IATA:TRO

Details
Type:Airport (Aerodrome, Airfield)
Latitude:3153'19"S (-31.888610)
Longitude:15230'50"E (152.513889)
Datum:WGS 1984
Elevation:38 ft (12 m)
Variation:12.26E (WMM2015v2 magnetic declination)
0.00 annual change
Runways:2
Longest:4934 × 98 ft (1504 × 30 m), paved

Time
Time Zone:UTC+10 (DST+11)
Local Time:

Weather
METAR:YTRE 041400Z AUTO 03009KT 9999 // NCD 24/18 Q1012
TAF:YTRE 031733Z 0319/0408 04005KT 9999 SCT005
FM032000 02005KT CAVOK
FM032400 04010KT CAVOK
FM040400 05015KT CAVOK PROB30 0319/0320 2000 BR SCT005

Related Locations
Nearby:
Farthest:SMA: 12057 mi / 19404 km
Santa Maria, 20, PT

Find:

   beyond  
but within

Other Information
Maps:
NOTAMs:
Links:
Sources:

  
  • flag of Australia
  • flag of New South Wales
  

Sectional Chart

Flight Planning
at skyvector.com

Satellite Image

Google Maps Satellite view

 

Copyright © 2004-2019 Karl L. Swartz. All rights reserved.
The Great Circle Mapper name and logo are trademarks of the Great Circle Mapper.
All other trademarks mentioned herein belong to their respective owners.
Please see credits for attibutions and further copyright information.

  Follow gcmap on Facebook Follow gcmap on Twitter GCmap on LinkedIn

hCard Microformat

Geo Microformat